createdAt,value
2018-07-21T00:00:56.488Z,20.40
2018-07-21T00:03:24.151Z,20.30
2018-07-21T00:05:51.304Z,20.40
2018-07-21T00:08:18.650Z,20.40
2018-07-21T00:10:46.108Z,20.40
2018-07-21T00:13:13.939Z,20.50
2018-07-21T00:18:08.479Z,20.40
2018-07-21T00:20:35.629Z,20.40
2018-07-21T00:23:02.545Z,20.30
2018-07-21T00:27:57.017Z,20.20
2018-07-21T00:30:24.432Z,19.80
2018-07-21T00:32:51.583Z,19.50
2018-07-21T00:35:18.731Z,19.30
2018-07-21T00:37:46.116Z,19.40
2018-07-21T00:40:13.580Z,19.50
2018-07-21T00:42:41.192Z,19.40
2018-07-21T00:45:08.580Z,19.60
2018-07-21T00:47:35.685Z,19.50
2018-07-21T00:50:02.726Z,19.40
2018-07-21T00:52:30.795Z,19.50
2018-07-21T00:54:57.970Z,19.70
2018-07-21T00:57:24.924Z,19.90
2018-07-21T00:59:52.476Z,19.60
2018-07-21T01:02:20.549Z,19.40
2018-07-21T01:04:48.092Z,19.30
2018-07-21T01:07:15.365Z,19.20
2018-07-21T01:09:43.776Z,19.30
2018-07-21T01:12:10.965Z,19.40
2018-07-21T01:17:06.004Z,19.40
2018-07-21T01:19:34.286Z,19.30
2018-07-21T01:22:01.738Z,19.30
2018-07-21T01:24:29.399Z,19.30
2018-07-21T01:26:57.266Z,19.30
2018-07-21T01:29:25.032Z,19.40
2018-07-21T01:31:53.643Z,19.40
2018-07-21T01:34:20.992Z,19.40
2018-07-21T01:36:48.136Z,19.40
2018-07-21T01:39:15.612Z,19.50
2018-07-21T01:41:42.733Z,19.50
2018-07-21T01:44:09.655Z,19.60
2018-07-21T01:46:37.267Z,19.50
2018-07-21T01:49:04.400Z,19.50
2018-07-21T01:51:32.719Z,19.60
2018-07-21T01:56:27.160Z,19.80
2018-07-21T01:58:54.303Z,19.80
2018-07-21T02:01:21.455Z,19.90
2018-07-21T02:03:48.863Z,19.80
2018-07-21T02:06:16.062Z,19.80
2018-07-21T02:08:43.912Z,19.80
2018-07-21T02:11:11.285Z,19.80
2018-07-21T02:13:38.872Z,20.00
2018-07-21T02:16:06.955Z,20.00
2018-07-21T02:21:02.736Z,19.90
2018-07-21T02:23:29.900Z,19.90
2018-07-21T02:25:58.285Z,19.80
2018-07-21T02:28:25.422Z,19.80
2018-07-21T02:30:52.775Z,19.60
2018-07-21T02:33:20.848Z,19.60
2018-07-21T02:35:49.019Z,19.60
2018-07-21T02:38:15.987Z,19.40
2018-07-21T02:40:43.631Z,19.30
2018-07-21T02:43:11.300Z,19.40
2018-07-21T02:45:39.732Z,19.50
2018-07-21T02:48:07.052Z,19.50
2018-07-21T02:53:02.372Z,19.50
2018-07-21T02:55:30.137Z,19.50
2018-07-21T02:57:59.028Z,19.50
2018-07-21T03:00:26.455Z,19.40
2018-07-21T03:02:53.609Z,19.40
2018-07-21T03:05:20.521Z,19.30
2018-07-21T03:07:47.451Z,19.40
2018-07-21T03:10:14.566Z,19.30
2018-07-21T03:12:41.691Z,19.30
2018-07-21T03:15:09.532Z,19.30
2018-07-21T03:17:36.707Z,19.30
2018-07-21T03:20:04.525Z,19.20
2018-07-21T03:22:32.336Z,18.80
2018-07-21T03:25:00.510Z,18.50
2018-07-21T03:27:27.767Z,18.70
2018-07-21T03:29:55.612Z,18.80
2018-07-21T03:32:22.773Z,18.90
2018-07-21T03:34:50.259Z,18.90
2018-07-21T03:37:17.155Z,18.80
2018-07-21T03:39:44.540Z,18.70
2018-07-21T03:42:12.638Z,18.80
2018-07-21T03:44:39.571Z,18.90
2018-07-21T03:47:07.694Z,18.70
2018-07-21T03:52:02.045Z,18.60
2018-07-21T03:54:29.067Z,18.70
2018-07-21T03:56:56.218Z,18.80
2018-07-21T03:59:23.573Z,18.80
2018-07-21T04:01:50.968Z,18.90
2018-07-21T04:04:17.992Z,18.80
2018-07-21T04:06:45.640Z,18.70
2018-07-21T04:09:13.707Z,18.60
2018-07-21T04:11:41.983Z,18.70
2018-07-21T04:14:10.483Z,19.00
2018-07-21T04:16:37.941Z,19.20
2018-07-21T04:19:06.194Z,19.40
2018-07-21T04:21:33.683Z,19.50
2018-07-21T04:24:01.682Z,19.60
2018-07-21T04:26:28.803Z,19.80
2018-07-21T04:28:56.252Z,20.00
2018-07-21T04:31:23.911Z,20.20
2018-07-21T04:33:51.341Z,20.40
2018-07-21T04:36:19.115Z,20.50
2018-07-21T04:38:46.492Z,20.70
2018-07-21T04:41:13.815Z,20.70
2018-07-21T04:43:40.966Z,21.00
2018-07-21T04:46:08.555Z,21.20
2018-07-21T04:48:35.705Z,21.50
2018-07-21T04:51:03.070Z,21.70
2018-07-21T04:53:31.065Z,22.00
2018-07-21T04:55:58.354Z,22.10
2018-07-21T04:58:26.029Z,22.20
2018-07-21T05:00:54.909Z,22.40
2018-07-21T05:03:22.775Z,22.70
2018-07-21T05:05:50.308Z,22.80
2018-07-21T05:08:17.715Z,23.00
2018-07-21T05:10:45.655Z,23.00
2018-07-21T05:13:13.763Z,23.30
2018-07-21T05:15:41.232Z,23.40
2018-07-21T05:18:08.143Z,23.60
2018-07-21T05:20:35.273Z,23.50
2018-07-21T05:23:02.732Z,23.50
2018-07-21T05:25:30.323Z,23.20
2018-07-21T05:27:57.745Z,23.10
2018-07-21T05:30:25.109Z,23.10
2018-07-21T05:32:53.520Z,23.10
2018-07-21T05:35:20.936Z,23.00
2018-07-21T05:37:48.803Z,22.80
2018-07-21T05:40:16.361Z,22.70
2018-07-21T05:42:43.893Z,22.60
2018-07-21T05:45:12.058Z,22.50
2018-07-21T05:47:40.472Z,22.60
2018-07-21T05:50:07.640Z,22.60
2018-07-21T05:52:34.555Z,22.70
2018-07-21T05:55:01.703Z,22.70
2018-07-21T05:57:29.478Z,22.80
2018-07-21T05:59:56.844Z,22.80
2018-07-21T06:02:23.983Z,22.70
2018-07-21T06:04:51.433Z,22.70
2018-07-21T06:07:18.840Z,22.70
2018-07-21T06:09:45.969Z,22.30
2018-07-21T06:12:12.943Z,21.40
2018-07-21T06:14:40.067Z,21.20
2018-07-21T06:17:07.696Z,20.90
2018-07-21T06:19:34.761Z,20.60
2018-07-21T06:22:01.800Z,20.50
2018-07-21T06:24:28.711Z,20.50
2018-07-21T06:26:55.893Z,20.70
2018-07-21T06:29:23.056Z,20.70
2018-07-21T06:31:50.504Z,20.70
2018-07-21T06:34:18.564Z,20.70
2018-07-21T06:36:46.243Z,20.70
2018-07-21T06:39:13.618Z,20.80
2018-07-21T06:41:41.549Z,21.00
2018-07-21T06:44:09.210Z,21.20
2018-07-21T06:46:37.195Z,21.30
2018-07-21T06:49:04.833Z,21.60
2018-07-21T06:51:32.420Z,21.90
2018-07-21T06:53:59.801Z,22.10
2018-07-21T06:56:27.428Z,22.30
2018-07-21T06:58:55.529Z,22.30
2018-07-21T07:01:22.953Z,22.30
2018-07-21T07:03:50.398Z,22.40
2018-07-21T07:06:17.548Z,22.40
2018-07-21T07:08:44.929Z,22.50
2018-07-21T07:11:11.934Z,22.40
2018-07-21T07:13:38.844Z,22.50
2018-07-21T07:16:05.872Z,22.70
2018-07-21T07:18:32.797Z,22.70
2018-07-21T07:20:59.708Z,22.70
2018-07-21T07:23:26.632Z,22.70
2018-07-21T07:25:53.545Z,22.80
2018-07-21T07:28:20.456Z,22.80
2018-07-21T07:30:47.363Z,22.90
2018-07-21T07:33:14.336Z,22.90
2018-07-21T07:38:14.990Z,23.00
2018-07-21T07:40:41.935Z,23.00
2018-07-21T07:43:08.856Z,23.00
2018-07-21T07:48:02.693Z,23.00
2018-07-21T07:50:29.701Z,22.90
2018-07-21T07:52:56.813Z,22.90
2018-07-21T07:55:23.755Z,22.90
2018-07-21T07:57:50.693Z,23.10
2018-07-21T08:00:17.731Z,23.20
2018-07-21T08:02:44.651Z,23.20
2018-07-21T08:05:11.587Z,23.30
2018-07-21T08:07:38.542Z,23.20
2018-07-21T08:10:05.697Z,23.00
2018-07-21T08:12:32.609Z,22.70
2018-07-21T08:14:59.544Z,22.40
2018-07-21T08:17:31.304Z,22.50
2018-07-21T08:19:58.329Z,22.60
2018-07-21T08:22:25.275Z,22.40
2018-07-21T08:24:52.212Z,22.20
2018-07-21T08:27:19.156Z,22.30
2018-07-21T08:29:46.114Z,22.30
2018-07-21T08:32:13.091Z,22.20
2018-07-21T08:34:40.077Z,22.10
2018-07-21T08:37:07.005Z,22.30
2018-07-21T08:39:33.969Z,22.30
2018-07-21T08:42:00.969Z,22.20
2018-07-21T08:44:34.164Z,22.30
2018-07-21T08:47:01.113Z,22.30
2018-07-21T08:49:28.022Z,22.40
2018-07-21T08:51:55.360Z,22.50
2018-07-21T08:54:22.280Z,22.50
2018-07-21T08:56:49.242Z,22.60
2018-07-21T08:59:16.216Z,22.70
2018-07-21T09:01:43.235Z,22.80
2018-07-21T09:04:10.223Z,22.90
2018-07-21T09:06:37.202Z,22.90
2018-07-21T09:09:06.269Z,22.80
2018-07-21T09:11:33.232Z,23.00
2018-07-21T09:14:00.896Z,23.10
2018-07-21T09:16:27.830Z,23.20
2018-07-21T09:18:54.800Z,23.30
2018-07-21T09:21:21.756Z,23.50
2018-07-21T09:23:48.766Z,23.70
2018-07-21T09:26:15.721Z,23.90
2018-07-21T09:28:42.662Z,24.00
2018-07-21T09:31:09.613Z,24.30
2018-07-21T09:33:36.597Z,24.30
2018-07-21T09:36:14.919Z,24.20
2018-07-21T09:38:41.938Z,24.10
2018-07-21T09:41:09.876Z,24.20
2018-07-21T09:43:36.956Z,24.40
2018-07-21T09:46:05.102Z,24.40
2018-07-21T09:48:32.027Z,24.20
2018-07-21T09:50:58.964Z,24.40
2018-07-21T09:55:52.811Z,24.60
2018-07-21T09:58:19.777Z,24.70
2018-07-21T10:00:52.280Z,24.60
2018-07-21T10:03:19.246Z,24.80
2018-07-21T10:05:46.225Z,24.80
2018-07-21T10:08:13.169Z,24.80
2018-07-21T10:10:40.095Z,24.90
2018-07-21T10:13:07.219Z,24.90
2018-07-21T10:15:34.189Z,25.00
2018-07-21T10:18:01.231Z,25.00
2018-07-21T10:20:28.239Z,25.10
2018-07-21T10:22:55.327Z,25.30
2018-07-21T10:25:28.033Z,25.30
2018-07-21T10:28:00.781Z,25.10
2018-07-21T10:30:27.726Z,25.10
2018-07-21T10:32:54.666Z,25.10
2018-07-21T10:35:21.601Z,25.10
2018-07-21T10:37:48.546Z,25.30
2018-07-21T10:40:15.473Z,25.50
2018-07-21T10:42:42.438Z,25.40
2018-07-21T10:45:09.377Z,25.20
2018-07-21T10:47:36.300Z,24.90
2018-07-21T10:52:32.268Z,25.20
2018-07-21T10:54:59.418Z,25.10
2018-07-21T10:57:26.526Z,25.10
2018-07-21T11:04:49.875Z,25.50
2018-07-21T11:07:17.935Z,25.40
2018-07-21T11:09:46.451Z,25.50
2018-07-21T11:12:13.663Z,25.40
2018-07-21T11:14:40.616Z,25.20
2018-07-21T11:17:07.632Z,25.30
2018-07-21T11:19:34.544Z,25.10
2018-07-21T11:22:01.552Z,25.20
2018-07-21T11:24:28.490Z,25.30
2018-07-21T11:26:55.419Z,25.50
2018-07-21T11:29:22.539Z,25.50
2018-07-21T11:31:50.459Z,25.60
2018-07-21T11:34:17.862Z,25.60
2018-07-21T11:36:44.978Z,25.70
2018-07-21T11:39:12.348Z,26.00
2018-07-21T11:41:40.813Z,26.20
2018-07-21T11:44:08.057Z,26.40
2018-07-21T11:46:35.756Z,26.50
2018-07-21T11:49:03.146Z,26.50
2018-07-21T11:51:30.421Z,26.50
2018-07-21T11:53:58.716Z,26.00
2018-07-21T11:56:26.576Z,25.70
2018-07-21T11:58:55.110Z,25.80
2018-07-21T12:01:22.796Z,25.60
2018-07-21T12:03:50.313Z,25.60
2018-07-21T12:06:17.665Z,25.80
2018-07-21T12:08:44.848Z,26.10
2018-07-21T12:11:12.037Z,26.30
2018-07-21T12:13:40.423Z,26.30
2018-07-21T12:16:07.871Z,26.00
2018-07-21T12:18:36.313Z,25.70
2018-07-21T12:21:12.026Z,25.30
2018-07-21T12:23:43.748Z,25.40
2018-07-21T12:26:26.260Z,24.70
2018-07-21T12:41:54.829Z,24.70
2018-07-21T12:44:22.448Z,23.40
2018-07-21T12:46:49.863Z,23.50
2018-07-21T12:49:17.081Z,23.40
2018-07-21T13:01:35.105Z,23.40
2018-07-21T13:04:08.328Z,22.70
2018-07-21T13:06:41.224Z,22.80
2018-07-21T13:09:12.388Z,22.80
2018-07-21T13:11:43.505Z,22.80
2018-07-21T13:16:41.170Z,22.70
2018-07-21T13:19:10.173Z,22.60
2018-07-21T13:24:06.810Z,22.60
2018-07-21T13:26:34.059Z,22.70
2018-07-21T13:29:02.992Z,22.50
2018-07-21T13:31:38.735Z,22.30
2018-07-21T13:34:07.242Z,22.20
2018-07-21T13:36:35.287Z,22.10
2018-07-21T13:39:02.663Z,22.10
2018-07-21T13:41:30.496Z,22.10
2018-07-21T13:46:29.252Z,22.20
2018-07-21T13:49:02.891Z,22.00
2018-07-21T13:51:32.593Z,22.00
2018-07-21T13:54:03.152Z,21.90
2018-07-21T13:56:34.792Z,22.00
2018-07-21T13:59:03.615Z,22.00
2018-07-21T14:01:31.498Z,22.10
2018-07-21T14:03:59.257Z,21.90
2018-07-21T14:16:11.949Z,21.80
2018-07-21T14:18:39.181Z,21.60
2018-07-21T14:21:06.354Z,21.60
2018-07-21T14:23:34.040Z,21.50
2018-07-21T14:26:01.879Z,21.70
2018-07-21T14:28:29.861Z,21.80
2018-07-21T14:30:57.655Z,22.00
2018-07-21T14:35:52.003Z,22.00
2018-07-21T14:38:19.255Z,22.20
2018-07-21T14:40:47.784Z,22.30
2018-07-21T14:48:24.941Z,22.70
2018-07-21T14:50:52.679Z,22.80
2018-07-21T14:53:24.272Z,22.90
2018-07-21T14:55:51.610Z,23.00
